sensor_id;sensor_type;location;lat;lon;timestamp;P1;durP1;ratioP1;P2;durP2;ratioP2
65597;SDS011;52267;51.984;20.956;2023-07-29T00:00:53;8.00;;;4.30;;
65597;SDS011;52267;51.984;20.956;2023-07-29T00:03:26;5.50;;;3.90;;
65597;SDS011;52267;51.984;20.956;2023-07-29T00:05:53;5.40;;;4.20;;
65597;SDS011;52267;51.984;20.956;2023-07-29T00:08:20;5.80;;;4.20;;
65597;SDS011;52267;51.984;20.956;2023-07-29T00:10:47;6.20;;;4.20;;
65597;SDS011;52267;51.984;20.956;2023-07-29T00:13:15;6.10;;;4.10;;
65597;SDS011;52267;51.984;20.956;2023-07-29T00:15:42;5.60;;;4.30;;
65597;SDS011;52267;51.984;20.956;2023-07-29T00:18:09;6.40;;;4.50;;
65597;SDS011;52267;51.984;20.956;2023-07-29T00:20:36;6.30;;;4.10;;
65597;SDS011;52267;51.984;20.956;2023-07-29T00:23:03;5.40;;;4.00;;
65597;SDS011;52267;51.984;20.956;2023-07-29T00:25:30;5.40;;;4.20;;
65597;SDS011;52267;51.984;20.956;2023-07-29T00:27:57;5.70;;;4.20;;
65597;SDS011;52267;51.984;20.956;2023-07-29T00:30:25;5.70;;;4.20;;
65597;SDS011;52267;51.984;20.956;2023-07-29T00:32:52;6.10;;;4.10;;
65597;SDS011;52267;51.984;20.956;2023-07-29T00:35:19;6.30;;;4.20;;
65597;SDS011;52267;51.984;20.956;2023-07-29T00:37:46;6.40;;;4.00;;
65597;SDS011;52267;51.984;20.956;2023-07-29T00:40:21;7.30;;;4.50;;
65597;SDS011;52267;51.984;20.956;2023-07-29T00:42:49;6.10;;;4.10;;
65597;SDS011;52267;51.984;20.956;2023-07-29T00:45:17;7.60;;;4.70;;
65597;SDS011;52267;51.984;20.956;2023-07-29T00:47:44;5.50;;;4.10;;
65597;SDS011;52267;51.984;20.956;2023-07-29T00:50:12;8.40;;;4.20;;
65597;SDS011;52267;51.984;20.956;2023-07-29T00:52:40;6.00;;;4.40;;
65597;SDS011;52267;51.984;20.956;2023-07-29T00:55:08;6.30;;;3.90;;
65597;SDS011;52267;51.984;20.956;2023-07-29T00:57:35;7.80;;;4.50;;
65597;SDS011;52267;51.984;20.956;2023-07-29T01:00:02;6.00;;;4.10;;
65597;SDS011;52267;51.984;20.956;2023-07-29T01:02:31;6.20;;;4.50;;
65597;SDS011;52267;51.984;20.956;2023-07-29T01:04:59;6.20;;;4.00;;
65597;SDS011;52267;51.984;20.956;2023-07-29T01:07:33;5.80;;;4.20;;
65597;SDS011;52267;51.984;20.956;2023-07-29T01:16:49;5.40;;;4.00;;
65597;SDS011;52267;51.984;20.956;2023-07-29T01:19:55;6.00;;;4.10;;
65597;SDS011;52267;51.984;20.956;2023-07-29T01:22:37;6.20;;;4.00;;
65597;SDS011;52267;51.984;20.956;2023-07-29T01:25:08;7.00;;;4.30;;
65597;SDS011;52267;51.984;20.956;2023-07-29T01:27:36;8.20;;;3.80;;
65597;SDS011;52267;51.984;20.956;2023-07-29T01:30:04;6.50;;;3.90;;
65597;SDS011;52267;51.984;20.956;2023-07-29T01:32:43;8.30;;;3.40;;
65597;SDS011;52267;51.984;20.956;2023-07-29T01:38:17;7.00;;;3.80;;
65597;SDS011;52267;51.984;20.956;2023-07-29T01:40:46;7.00;;;4.70;;
65597;SDS011;52267;51.984;20.956;2023-07-29T01:43:15;4.90;;;3.70;;
65597;SDS011;52267;51.984;20.956;2023-07-29T01:45:44;7.60;;;4.80;;
65597;SDS011;52267;51.984;20.956;2023-07-29T01:48:11;8.40;;;5.40;;
65597;SDS011;52267;51.984;20.956;2023-07-29T01:50:38;7.20;;;5.20;;
65597;SDS011;52267;51.984;20.956;2023-07-29T01:53:05;8.30;;;5.60;;
65597;SDS011;52267;51.984;20.956;2023-07-29T01:55:32;6.80;;;4.50;;
65597;SDS011;52267;51.984;20.956;2023-07-29T01:57:59;7.70;;;5.40;;
65597;SDS011;52267;51.984;20.956;2023-07-29T02:00:26;8.00;;;5.60;;
65597;SDS011;52267;51.984;20.956;2023-07-29T02:02:53;7.90;;;4.70;;
65597;SDS011;52267;51.984;20.956;2023-07-29T02:05:20;8.20;;;4.40;;
65597;SDS011;52267;51.984;20.956;2023-07-29T02:07:50;9.60;;;4.60;;
65597;SDS011;52267;51.984;20.956;2023-07-29T02:10:17;6.00;;;5.00;;
65597;SDS011;52267;51.984;20.956;2023-07-29T02:12:44;11.30;;;6.20;;
65597;SDS011;52267;51.984;20.956;2023-07-29T02:15:11;9.90;;;7.10;;
65597;SDS011;52267;51.984;20.956;2023-07-29T02:17:41;11.20;;;7.80;;
65597;SDS011;52267;51.984;20.956;2023-07-29T02:20:11;11.80;;;9.10;;
65597;SDS011;52267;51.984;20.956;2023-07-29T02:22:38;10.90;;;8.10;;
65597;SDS011;52267;51.984;20.956;2023-07-29T02:25:06;12.80;;;8.00;;
65597;SDS011;52267;51.984;20.956;2023-07-29T02:27:33;12.20;;;8.80;;
65597;SDS011;52267;51.984;20.956;2023-07-29T02:30:00;12.40;;;8.70;;
65597;SDS011;52267;51.984;20.956;2023-07-29T02:32:28;14.90;;;9.60;;
65597;SDS011;52267;51.984;20.956;2023-07-29T02:34:55;15.60;;;9.30;;
65597;SDS011;52267;51.984;20.956;2023-07-29T02:37:22;14.10;;;9.20;;
65597;SDS011;52267;51.984;20.956;2023-07-29T02:39:49;14.60;;;9.20;;
65597;SDS011;52267;51.984;20.956;2023-07-29T02:42:16;13.40;;;9.70;;
65597;SDS011;52267;51.984;20.956;2023-07-29T02:44:43;14.10;;;9.90;;
65597;SDS011;52267;51.984;20.956;2023-07-29T02:47:10;15.90;;;10.10;;
65597;SDS011;52267;51.984;20.956;2023-07-29T02:49:37;17.90;;;11.00;;
65597;SDS011;52267;51.984;20.956;2023-07-29T02:52:04;15.00;;;10.10;;
65597;SDS011;52267;51.984;20.956;2023-07-29T02:54:31;14.60;;;10.80;;
65597;SDS011;52267;51.984;20.956;2023-07-29T02:56:58;16.30;;;10.90;;
65597;SDS011;52267;51.984;20.956;2023-07-29T02:59:25;15.30;;;10.60;;
65597;SDS011;52267;51.984;20.956;2023-07-29T03:01:52;17.80;;;11.40;;
65597;SDS011;52267;51.984;20.956;2023-07-29T03:04:20;17.60;;;11.70;;
65597;SDS011;52267;51.984;20.956;2023-07-29T03:06:47;16.50;;;11.90;;
65597;SDS011;52267;51.984;20.956;2023-07-29T03:09:14;17.10;;;11.60;;
65597;SDS011;52267;51.984;20.956;2023-07-29T03:11:41;15.50;;;11.00;;
65597;SDS011;52267;51.984;20.956;2023-07-29T03:14:08;18.50;;;11.90;;
65597;SDS011;52267;51.984;20.956;2023-07-29T03:16:35;17.00;;;11.30;;
65597;SDS011;52267;51.984;20.956;2023-07-29T03:19:02;18.10;;;11.60;;
65597;SDS011;52267;51.984;20.956;2023-07-29T03:21:29;19.40;;;12.00;;
65597;SDS011;52267;51.984;20.956;2023-07-29T03:23:56;16.20;;;11.90;;
65597;SDS011;52267;51.984;20.956;2023-07-29T03:26:23;16.80;;;11.60;;
65597;SDS011;52267;51.984;20.956;2023-07-29T03:28:51;19.10;;;11.20;;
65597;SDS011;52267;51.984;20.956;2023-07-29T03:34:48;17.00;;;11.00;;
65597;SDS011;52267;51.984;20.956;2023-07-29T03:37:15;17.90;;;12.30;;
65597;SDS011;52267;51.984;20.956;2023-07-29T03:39:43;17.90;;;11.90;;
65597;SDS011;52267;51.984;20.956;2023-07-29T03:42:10;16.60;;;11.40;;
65597;SDS011;52267;51.984;20.956;2023-07-29T03:44:37;18.90;;;12.00;;
65597;SDS011;52267;51.984;20.956;2023-07-29T03:47:06;18.70;;;12.60;;
65597;SDS011;52267;51.984;20.956;2023-07-29T03:49:33;19.20;;;12.30;;
65597;SDS011;52267;51.984;20.956;2023-07-29T03:52:00;17.00;;;12.40;;
65597;SDS011;52267;51.984;20.956;2023-07-29T03:54:27;19.70;;;12.60;;
65597;SDS011;52267;51.984;20.956;2023-07-29T03:56:54;15.10;;;10.40;;
65597;SDS011;52267;51.984;20.956;2023-07-29T03:59:21;15.90;;;10.30;;
65597;SDS011;52267;51.984;20.956;2023-07-29T04:01:49;16.10;;;10.90;;
65597;SDS011;52267;51.984;20.956;2023-07-29T04:04:16;13.60;;;9.60;;
65597;SDS011;52267;51.984;20.956;2023-07-29T04:06:43;15.10;;;10.60;;
65597;SDS011;52267;51.984;20.956;2023-07-29T04:09:10;17.10;;;10.40;;
65597;SDS011;52267;51.984;20.956;2023-07-29T04:11:37;15.30;;;11.70;;
65597;SDS011;52267;51.984;20.956;2023-07-29T04:14:04;15.00;;;10.50;;
65597;SDS011;52267;51.984;20.956;2023-07-29T04:16:31;14.60;;;10.60;;
65597;SDS011;52267;51.984;20.956;2023-07-29T04:18:58;13.80;;;9.80;;
65597;SDS011;52267;51.984;20.956;2023-07-29T04:21:25;15.10;;;10.30;;
65597;SDS011;52267;51.984;20.956;2023-07-29T04:23:53;13.40;;;9.50;;
65597;SDS011;52267;51.984;20.956;2023-07-29T04:26:20;17.60;;;10.70;;
65597;SDS011;52267;51.984;20.956;2023-07-29T04:28:50;13.80;;;11.00;;
65597;SDS011;52267;51.984;20.956;2023-07-29T04:31:17;14.20;;;9.50;;
65597;SDS011;52267;51.984;20.956;2023-07-29T04:33:44;13.60;;;9.70;;
65597;SDS011;52267;51.984;20.956;2023-07-29T04:36:11;16.50;;;10.40;;
65597;SDS011;52267;51.984;20.956;2023-07-29T04:38:38;15.10;;;10.10;;
65597;SDS011;52267;51.984;20.956;2023-07-29T04:41:05;13.30;;;9.80;;
65597;SDS011;52267;51.984;20.956;2023-07-29T04:43:33;17.50;;;10.40;;
65597;SDS011;52267;51.984;20.956;2023-07-29T04:46:00;13.90;;;10.40;;
65597;SDS011;52267;51.984;20.956;2023-07-29T04:48:27;13.40;;;9.80;;
65597;SDS011;52267;51.984;20.956;2023-07-29T04:50:54;14.00;;;10.30;;
65597;SDS011;52267;51.984;20.956;2023-07-29T04:53:21;14.60;;;9.80;;
65597;SDS011;52267;51.984;20.956;2023-07-29T04:55:48;13.30;;;8.90;;
65597;SDS011;52267;51.984;20.956;2023-07-29T04:58:15;15.50;;;10.40;;
65597;SDS011;52267;51.984;20.956;2023-07-29T05:00:42;14.20;;;10.40;;
65597;SDS011;52267;51.984;20.956;2023-07-29T05:03:09;13.00;;;9.70;;
65597;SDS011;52267;51.984;20.956;2023-07-29T05:05:37;13.80;;;10.70;;
65597;SDS011;52267;51.984;20.956;2023-07-29T05:08:04;12.10;;;9.50;;
65597;SDS011;52267;51.984;20.956;2023-07-29T05:10:31;14.50;;;9.70;;
65597;SDS011;52267;51.984;20.956;2023-07-29T05:12:58;12.80;;;9.00;;
65597;SDS011;52267;51.984;20.956;2023-07-29T05:15:25;13.00;;;9.30;;
65597;SDS011;52267;51.984;20.956;2023-07-29T05:17:52;11.90;;;8.80;;
65597;SDS011;52267;51.984;20.956;2023-07-29T05:20:19;13.90;;;9.80;;
65597;SDS011;52267;51.984;20.956;2023-07-29T05:22:46;12.40;;;8.70;;
65597;SDS011;52267;51.984;20.956;2023-07-29T05:25:13;11.30;;;8.60;;
65597;SDS011;52267;51.984;20.956;2023-07-29T05:27:40;13.80;;;8.80;;
65597;SDS011;52267;51.984;20.956;2023-07-29T05:30:07;13.50;;;9.10;;
65597;SDS011;52267;51.984;20.956;2023-07-29T05:32:34;11.20;;;8.50;;
65597;SDS011;52267;51.984;20.956;2023-07-29T05:35:02;11.60;;;8.80;;
65597;SDS011;52267;51.984;20.956;2023-07-29T05:37:29;10.70;;;8.50;;
65597;SDS011;52267;51.984;20.956;2023-07-29T05:39:56;10.60;;;8.10;;
65597;SDS011;52267;51.984;20.956;2023-07-29T05:42:23;10.50;;;8.00;;
65597;SDS011;52267;51.984;20.956;2023-07-29T05:44:50;10.80;;;8.10;;
65597;SDS011;52267;51.984;20.956;2023-07-29T05:47:17;10.10;;;8.10;;
65597;SDS011;52267;51.984;20.956;2023-07-29T05:49:43;11.10;;;8.00;;
65597;SDS011;52267;51.984;20.956;2023-07-29T05:52:10;11.10;;;8.10;;
65597;SDS011;52267;51.984;20.956;2023-07-29T05:54:38;10.40;;;7.30;;
65597;SDS011;52267;51.984;20.956;2023-07-29T05:57:05;9.10;;;7.00;;
65597;SDS011;52267;51.984;20.956;2023-07-29T05:59:32;9.10;;;6.40;;
65597;SDS011;52267;51.984;20.956;2023-07-29T06:01:59;8.70;;;6.20;;
65597;SDS011;52267;51.984;20.956;2023-07-29T06:04:26;8.60;;;6.90;;
65597;SDS011;52267;51.984;20.956;2023-07-29T06:06:53;10.40;;;6.70;;
65597;SDS011;52267;51.984;20.956;2023-07-29T06:09:22;8.50;;;6.10;;
65597;SDS011;52267;51.984;20.956;2023-07-29T06:11:49;8.20;;;6.60;;
65597;SDS011;52267;51.984;20.956;2023-07-29T06:14:17;8.80;;;6.60;;
65597;SDS011;52267;51.984;20.956;2023-07-29T06:16:44;8.60;;;6.20;;
65597;SDS011;52267;51.984;20.956;2023-07-29T06:19:11;7.80;;;6.00;;
65597;SDS011;52267;51.984;20.956;2023-07-29T06:21:38;8.10;;;6.40;;
65597;SDS011;52267;51.984;20.956;2023-07-29T06:24:05;7.30;;;5.90;;
65597;SDS011;52267;51.984;20.956;2023-07-29T06:26:32;7.70;;;5.50;;
65597;SDS011;52267;51.984;20.956;2023-07-29T06:28:59;7.00;;;5.80;;
65597;SDS011;52267;51.984;20.956;2023-07-29T06:31:26;7.90;;;5.60;;
65597;SDS011;52267;51.984;20.956;2023-07-29T06:33:53;7.10;;;5.60;;
65597;SDS011;52267;51.984;20.956;2023-07-29T06:36:24;7.90;;;5.80;;
65597;SDS011;52267;51.984;20.956;2023-07-29T06:38:51;6.20;;;5.00;;
65597;SDS011;52267;51.984;20.956;2023-07-29T06:41:18;6.00;;;4.90;;
65597;SDS011;52267;51.984;20.956;2023-07-29T06:43:45;6.00;;;4.70;;
65597;SDS011;52267;51.984;20.956;2023-07-29T06:46:12;7.00;;;4.90;;
65597;SDS011;52267;51.984;20.956;2023-07-29T06:48:39;5.80;;;4.80;;
65597;SDS011;52267;51.984;20.956;2023-07-29T06:51:06;5.70;;;4.30;;
65597;SDS011;52267;51.984;20.956;2023-07-29T06:53:33;7.40;;;4.40;;
65597;SDS011;52267;51.984;20.956;2023-07-29T06:56:00;5.80;;;4.70;;
65597;SDS011;52267;51.984;20.956;2023-07-29T06:58:28;6.00;;;4.80;;
65597;SDS011;52267;51.984;20.956;2023-07-29T07:00:55;5.70;;;4.30;;
65597;SDS011;52267;51.984;20.956;2023-07-29T07:03:22;5.90;;;4.60;;
65597;SDS011;52267;51.984;20.956;2023-07-29T07:05:50;8.10;;;5.10;;
65597;SDS011;52267;51.984;20.956;2023-07-29T07:08:17;6.10;;;4.50;;
65597;SDS011;52267;51.984;20.956;2023-07-29T07:10:46;6.20;;;5.10;;
65597;SDS011;52267;51.984;20.956;2023-07-29T07:13:14;4.90;;;4.30;;
65597;SDS011;52267;51.984;20.956;2023-07-29T07:15:41;6.80;;;4.90;;
65597;SDS011;52267;51.984;20.956;2023-07-29T07:18:08;5.10;;;4.20;;
65597;SDS011;52267;51.984;20.956;2023-07-29T07:20:36;5.30;;;4.50;;
65597;SDS011;52267;51.984;20.956;2023-07-29T07:23:03;6.00;;;4.80;;
65597;SDS011;52267;51.984;20.956;2023-07-29T07:25:32;5.90;;;4.50;;
65597;SDS011;52267;51.984;20.956;2023-07-29T07:27:59;6.20;;;4.50;;
65597;SDS011;52267;51.984;20.956;2023-07-29T07:30:26;5.30;;;4.20;;
65597;SDS011;52267;51.984;20.956;2023-07-29T07:32:53;6.40;;;4.90;;
65597;SDS011;52267;51.984;20.956;2023-07-29T07:35:20;6.10;;;4.50;;
65597;SDS011;52267;51.984;20.956;2023-07-29T07:37:47;5.10;;;4.30;;
65597;SDS011;52267;51.984;20.956;2023-07-29T07:40:14;6.20;;;4.60;;
65597;SDS011;52267;51.984;20.956;2023-07-29T07:42:42;5.00;;;4.40;;
65597;SDS011;52267;51.984;20.956;2023-07-29T07:45:09;5.40;;;4.50;;
65597;SDS011;52267;51.984;20.956;2023-07-29T07:47:36;5.60;;;4.40;;
65597;SDS011;52267;51.984;20.956;2023-07-29T07:50:03;4.80;;;3.60;;
65597;SDS011;52267;51.984;20.956;2023-07-29T07:52:31;5.10;;;4.40;;
65597;SDS011;52267;51.984;20.956;2023-07-29T07:54:58;5.10;;;3.80;;
65597;SDS011;52267;51.984;20.956;2023-07-29T07:57:25;5.80;;;4.10;;
65597;SDS011;52267;51.984;20.956;2023-07-29T07:59:52;4.90;;;3.90;;
65597;SDS011;52267;51.984;20.956;2023-07-29T08:02:19;5.70;;;4.10;;
65597;SDS011;52267;51.984;20.956;2023-07-29T08:04:47;6.00;;;3.60;;
65597;SDS011;52267;51.984;20.956;2023-07-29T08:07:14;5.30;;;3.50;;
65597;SDS011;52267;51.984;20.956;2023-07-29T08:09:41;5.10;;;3.70;;
65597;SDS011;52267;51.984;20.956;2023-07-29T08:12:08;4.70;;;3.30;;
65597;SDS011;52267;51.984;20.956;2023-07-29T08:14:35;3.90;;;3.10;;
65597;SDS011;52267;51.984;20.956;2023-07-29T08:17:02;4.30;;;3.30;;
65597;SDS011;52267;51.984;20.956;2023-07-29T08:19:29;4.50;;;3.10;;
65597;SDS011;52267;51.984;20.956;2023-07-29T08:21:57;3.80;;;2.90;;
65597;SDS011;52267;51.984;20.956;2023-07-29T08:24:24;4.30;;;3.00;;
65597;SDS011;52267;51.984;20.956;2023-07-29T08:26:51;3.60;;;2.80;;
65597;SDS011;52267;51.984;20.956;2023-07-29T08:29:18;4.50;;;3.20;;
65597;SDS011;52267;51.984;20.956;2023-07-29T08:31:45;4.80;;;3.00;;
65597;SDS011;52267;51.984;20.956;2023-07-29T08:34:12;5.60;;;3.20;;
65597;SDS011;52267;51.984;20.956;2023-07-29T08:36:39;3.50;;;2.60;;
65597;SDS011;52267;51.984;20.956;2023-07-29T08:39:06;5.60;;;2.80;;
65597;SDS011;52267;51.984;20.956;2023-07-29T08:42:12;4.00;;;3.00;;
65597;SDS011;52267;51.984;20.956;2023-07-29T08:44:42;4.60;;;3.10;;
65597;SDS011;52267;51.984;20.956;2023-07-29T08:47:11;4.40;;;3.30;;
65597;SDS011;52267;51.984;20.956;2023-07-29T08:49:40;3.90;;;2.80;;
65597;SDS011;52267;51.984;20.956;2023-07-29T08:52:11;4.40;;;2.80;;
65597;SDS011;52267;51.984;20.956;2023-07-29T08:54:39;4.00;;;2.70;;
65597;SDS011;52267;51.984;20.956;2023-07-29T08:57:06;3.80;;;3.00;;
65597;SDS011;52267;51.984;20.956;2023-07-29T08:59:33;4.20;;;2.90;;
65597;SDS011;52267;51.984;20.956;2023-07-29T09:02:01;4.30;;;3.10;;
65597;SDS011;52267;51.984;20.956;2023-07-29T09:04:28;3.50;;;2.70;;
65597;SDS011;52267;51.984;20.956;2023-07-29T09:06:56;3.80;;;3.10;;
65597;SDS011;52267;51.984;20.956;2023-07-29T09:09:23;4.10;;;3.10;;
65597;SDS011;52267;51.984;20.956;2023-07-29T09:11:51;5.20;;;2.90;;
65597;SDS011;52267;51.984;20.956;2023-07-29T09:14:18;3.70;;;2.90;;
65597;SDS011;52267;51.984;20.956;2023-07-29T09:16:46;5.10;;;2.90;;
65597;SDS011;52267;51.984;20.956;2023-07-29T09:19:13;3.60;;;2.90;;
65597;SDS011;52267;51.984;20.956;2023-07-29T09:21:41;3.00;;;2.10;;
65597;SDS011;52267;51.984;20.956;2023-07-29T09:24:08;3.20;;;2.60;;
65597;SDS011;52267;51.984;20.956;2023-07-29T09:26:36;3.40;;;2.50;;
65597;SDS011;52267;51.984;20.956;2023-07-29T09:29:03;6.30;;;3.00;;
65597;SDS011;52267;51.984;20.956;2023-07-29T09:31:30;4.90;;;2.90;;
65597;SDS011;52267;51.984;20.956;2023-07-29T09:33:59;3.80;;;2.80;;
65597;SDS011;52267;51.984;20.956;2023-07-29T09:36:30;4.10;;;3.10;;
65597;SDS011;52267;51.984;20.956;2023-07-29T09:38:58;5.90;;;3.40;;
65597;SDS011;52267;51.984;20.956;2023-07-29T09:41:27;5.20;;;3.30;;
65597;SDS011;52267;51.984;20.956;2023-07-29T09:43:59;4.20;;;3.20;;
65597;SDS011;52267;51.984;20.956;2023-07-29T09:49:03;4.60;;;3.10;;
65597;SDS011;52267;51.984;20.956;2023-07-29T09:51:37;4.20;;;3.20;;
65597;SDS011;52267;51.984;20.956;2023-07-29T09:54:06;5.90;;;3.80;;
65597;SDS011;52267;51.984;20.956;2023-07-29T09:56:33;4.90;;;3.30;;
65597;SDS011;52267;51.984;20.956;2023-07-29T09:59:06;4.40;;;3.30;;
65597;SDS011;52267;51.984;20.956;2023-07-29T10:01:33;5.60;;;3.10;;
65597;SDS011;52267;51.984;20.956;2023-07-29T10:04:03;3.80;;;3.10;;
65597;SDS011;52267;51.984;20.956;2023-07-29T10:06:31;5.00;;;3.60;;
65597;SDS011;52267;51.984;20.956;2023-07-29T10:09:00;4.40;;;3.10;;
65597;SDS011;52267;51.984;20.956;2023-07-29T10:11:28;4.10;;;3.50;;
65597;SDS011;52267;51.984;20.956;2023-07-29T10:13:56;5.00;;;3.30;;
65597;SDS011;52267;51.984;20.956;2023-07-29T10:16:24;4.30;;;3.50;;
65597;SDS011;52267;51.984;20.956;2023-07-29T10:18:53;4.70;;;3.20;;
65597;SDS011;52267;51.984;20.956;2023-07-29T10:21:21;6.00;;;3.30;;
65597;SDS011;52267;51.984;20.956;2023-07-29T10:23:53;5.50;;;3.60;;
65597;SDS011;52267;51.984;20.956;2023-07-29T10:26:23;5.40;;;3.40;;
65597;SDS011;52267;51.984;20.956;2023-07-29T10:28:54;5.10;;;3.50;;
65597;SDS011;52267;51.984;20.956;2023-07-29T10:31:22;4.40;;;3.40;;
65597;SDS011;52267;51.984;20.956;2023-07-29T10:33:50;4.20;;;3.30;;
65597;SDS011;52267;51.984;20.956;2023-07-29T10:36:17;6.20;;;3.20;;
65597;SDS011;52267;51.984;20.956;2023-07-29T10:38:45;3.90;;;3.00;;
65597;SDS011;52267;51.984;20.956;2023-07-29T10:41:12;3.40;;;2.70;;
65597;SDS011;52267;51.984;20.956;2023-07-29T10:43:39;4.00;;;2.90;;
65597;SDS011;52267;51.984;20.956;2023-07-29T10:46:17;5.20;;;2.90;;
65597;SDS011;52267;51.984;20.956;2023-07-29T10:48:56;4.30;;;2.90;;
65597;SDS011;52267;51.984;20.956;2023-07-29T10:51:50;5.30;;;3.00;;
65597;SDS011;52267;51.984;20.956;2023-07-29T10:54:17;4.20;;;3.20;;
65597;SDS011;52267;51.984;20.956;2023-07-29T10:56:48;5.70;;;2.90;;
65597;SDS011;52267;51.984;20.956;2023-07-29T11:01:56;5.40;;;3.00;;
65597;SDS011;52267;51.984;20.956;2023-07-29T11:04:26;3.80;;;2.80;;
65597;SDS011;52267;51.984;20.956;2023-07-29T11:07:18;3.70;;;2.50;;
65597;SDS011;52267;51.984;20.956;2023-07-29T11:10:01;3.80;;;2.40;;
65597;SDS011;52267;51.984;20.956;2023-07-29T11:12:49;4.20;;;3.00;;
65597;SDS011;52267;51.984;20.956;2023-07-29T11:15:28;3.20;;;2.20;;
65597;SDS011;52267;51.984;20.956;2023-07-29T11:18:00;3.30;;;2.30;;
65597;SDS011;52267;51.984;20.956;2023-07-29T11:20:29;4.50;;;2.20;;
65597;SDS011;52267;51.984;20.956;2023-07-29T11:23:00;2.90;;;2.00;;
65597;SDS011;52267;51.984;20.956;2023-07-29T11:25:29;3.70;;;2.40;;
65597;SDS011;52267;51.984;20.956;2023-07-29T11:27:59;3.50;;;2.40;;
65597;SDS011;52267;51.984;20.956;2023-07-29T11:30:27;3.30;;;2.30;;
65597;SDS011;52267;51.984;20.956;2023-07-29T11:32:57;3.00;;;2.30;;
65597;SDS011;52267;51.984;20.956;2023-07-29T11:35:25;3.30;;;2.40;;
65597;SDS011;52267;51.984;20.956;2023-07-29T11:37:54;2.90;;;2.20;;
65597;SDS011;52267;51.984;20.956;2023-07-29T11:40:23;3.30;;;2.40;;
65597;SDS011;52267;51.984;20.956;2023-07-29T11:42:52;3.90;;;2.60;;
65597;SDS011;52267;51.984;20.956;2023-07-29T11:45:21;3.60;;;2.70;;
65597;SDS011;52267;51.984;20.956;2023-07-29T11:47:49;2.80;;;1.80;;
65597;SDS011;52267;51.984;20.956;2023-07-29T11:50:17;4.50;;;2.30;;
65597;SDS011;52267;51.984;20.956;2023-07-29T11:52:46;3.50;;;2.60;;
65597;SDS011;52267;51.984;20.956;2023-07-29T11:55:14;3.80;;;2.40;;
65597;SDS011;52267;51.984;20.956;2023-07-29T11:57:43;3.30;;;2.40;;
65597;SDS011;52267;51.984;20.956;2023-07-29T12:00:11;4.50;;;2.30;;
65597;SDS011;52267;51.984;20.956;2023-07-29T12:02:40;3.40;;;2.20;;
65597;SDS011;52267;51.984;20.956;2023-07-29T12:05:12;4.80;;;2.90;;
65597;SDS011;52267;51.984;20.956;2023-07-29T12:07:41;4.30;;;2.50;;
65597;SDS011;52267;51.984;20.956;2023-07-29T12:10:10;3.70;;;2.50;;
65597;SDS011;52267;51.984;20.956;2023-07-29T12:12:44;3.50;;;2.40;;
65597;SDS011;52267;51.984;20.956;2023-07-29T12:15:12;3.50;;;2.60;;
65597;SDS011;52267;51.984;20.956;2023-07-29T12:17:41;3.10;;;2.00;;
65597;SDS011;52267;51.984;20.956;2023-07-29T12:20:11;3.10;;;2.10;;
65597;SDS011;52267;51.984;20.956;2023-07-29T12:22:38;3.30;;;2.30;;
65597;SDS011;52267;51.984;20.956;2023-07-29T12:25:06;3.70;;;2.20;;
65597;SDS011;52267;51.984;20.956;2023-07-29T12:27:33;5.20;;;2.40;;
65597;SDS011;52267;51.984;20.956;2023-07-29T12:30:01;3.50;;;2.30;;
65597;SDS011;52267;51.984;20.956;2023-07-29T12:32:30;3.00;;;2.20;;
65597;SDS011;52267;51.984;20.956;2023-07-29T12:34:57;3.50;;;2.20;;
65597;SDS011;52267;51.984;20.956;2023-07-29T12:37:33;3.60;;;2.30;;
65597;SDS011;52267;51.984;20.956;2023-07-29T12:40:01;4.40;;;2.10;;
65597;SDS011;52267;51.984;20.956;2023-07-29T12:42:29;4.20;;;2.20;;
65597;SDS011;52267;51.984;20.956;2023-07-29T12:44:56;3.30;;;2.30;;
65597;SDS011;52267;51.984;20.956;2023-07-29T12:47:23;2.70;;;1.60;;
65597;SDS011;52267;51.984;20.956;2023-07-29T12:49:50;3.20;;;1.90;;
65597;SDS011;52267;51.984;20.956;2023-07-29T12:52:17;3.90;;;2.10;;
65597;SDS011;52267;51.984;20.956;2023-07-29T12:54:44;3.10;;;1.90;;
65597;SDS011;52267;51.984;20.956;2023-07-29T12:57:12;3.90;;;2.30;;
65597;SDS011;52267;51.984;20.956;2023-07-29T12:59:39;3.10;;;2.10;;
65597;SDS011;52267;51.984;20.956;2023-07-29T13:02:06;3.80;;;2.00;;
65597;SDS011;52267;51.984;20.956;2023-07-29T13:04:33;2.80;;;1.90;;
65597;SDS011;52267;51.984;20.956;2023-07-29T13:07:00;2.90;;;1.70;;
65597;SDS011;52267;51.984;20.956;2023-07-29T13:09:27;3.00;;;2.00;;
65597;SDS011;52267;51.984;20.956;2023-07-29T13:11:54;3.00;;;2.10;;
65597;SDS011;52267;51.984;20.956;2023-07-29T13:14:21;3.50;;;2.00;;
65597;SDS011;52267;51.984;20.956;2023-07-29T13:16:49;3.10;;;1.90;;
65597;SDS011;52267;51.984;20.956;2023-07-29T13:19:16;3.50;;;1.80;;
65597;SDS011;52267;51.984;20.956;2023-07-29T13:21:43;3.00;;;2.20;;
65597;SDS011;52267;51.984;20.956;2023-07-29T13:24:10;3.90;;;2.20;;
65597;SDS011;52267;51.984;20.956;2023-07-29T13:26:37;3.00;;;2.00;;
65597;SDS011;52267;51.984;20.956;2023-07-29T13:29:04;3.30;;;2.00;;
65597;SDS011;52267;51.984;20.956;2023-07-29T13:31:31;3.00;;;1.90;;
65597;SDS011;52267;51.984;20.956;2023-07-29T13:33:58;5.80;;;2.30;;
65597;SDS011;52267;51.984;20.956;2023-07-29T13:36:25;2.90;;;2.00;;
65597;SDS011;52267;51.984;20.956;2023-07-29T13:38:52;3.00;;;2.10;;
65597;SDS011;52267;51.984;20.956;2023-07-29T13:41:19;2.90;;;1.90;;
65597;SDS011;52267;51.984;20.956;2023-07-29T13:43:46;3.20;;;2.00;;
65597;SDS011;52267;51.984;20.956;2023-07-29T13:46:13;3.20;;;2.00;;
65597;SDS011;52267;51.984;20.956;2023-07-29T13:48:40;2.90;;;1.80;;
65597;SDS011;52267;51.984;20.956;2023-07-29T13:51:07;5.20;;;1.90;;
65597;SDS011;52267;51.984;20.956;2023-07-29T13:53:35;4.80;;;2.30;;
65597;SDS011;52267;51.984;20.956;2023-07-29T13:56:02;3.30;;;2.50;;
65597;SDS011;52267;51.984;20.956;2023-07-29T13:58:29;5.70;;;2.50;;
65597;SDS011;52267;51.984;20.956;2023-07-29T14:00:56;4.20;;;2.20;;
65597;SDS011;52267;51.984;20.956;2023-07-29T14:03:23;3.30;;;2.40;;
65597;SDS011;52267;51.984;20.956;2023-07-29T14:05:50;3.80;;;2.60;;
65597;SDS011;52267;51.984;20.956;2023-07-29T14:08:17;3.80;;;2.70;;
65597;SDS011;52267;51.984;20.956;2023-07-29T14:10:44;3.80;;;2.50;;
65597;SDS011;52267;51.984;20.956;2023-07-29T14:13:11;3.50;;;2.30;;
65597;SDS011;52267;51.984;20.956;2023-07-29T14:15:38;3.60;;;2.50;;
65597;SDS011;52267;51.984;20.956;2023-07-29T14:18:05;4.20;;;2.40;;
65597;SDS011;52267;51.984;20.956;2023-07-29T14:20:33;4.00;;;2.30;;
65597;SDS011;52267;51.984;20.956;2023-07-29T14:23:00;3.80;;;2.20;;
65597;SDS011;52267;51.984;20.956;2023-07-29T14:25:27;4.50;;;2.30;;
65597;SDS011;52267;51.984;20.956;2023-07-29T14:27:54;3.20;;;2.10;;
65597;SDS011;52267;51.984;20.956;2023-07-29T14:30:22;3.10;;;2.10;;
65597;SDS011;52267;51.984;20.956;2023-07-29T14:32:49;3.30;;;2.00;;
65597;SDS011;52267;51.984;20.956;2023-07-29T14:35:16;3.80;;;2.40;;
65597;SDS011;52267;51.984;20.956;2023-07-29T14:37:43;3.40;;;2.30;;
65597;SDS011;52267;51.984;20.956;2023-07-29T14:40:10;3.70;;;2.50;;
65597;SDS011;52267;51.984;20.956;2023-07-29T14:42:37;3.00;;;2.40;;
65597;SDS011;52267;51.984;20.956;2023-07-29T14:45:04;4.60;;;2.80;;
65597;SDS011;52267;51.984;20.956;2023-07-29T14:47:32;4.20;;;2.40;;
65597;SDS011;52267;51.984;20.956;2023-07-29T14:50:01;3.20;;;2.30;;
65597;SDS011;52267;51.984;20.956;2023-07-29T14:52:28;3.20;;;2.20;;